createdAt,value
2018-03-24T00:00:39.222Z,572.99
2018-03-24T00:01:39.233Z,572.64
2018-03-24T00:02:39.265Z,572.94
2018-03-24T00:03:39.249Z,573.07
2018-03-24T00:04:39.238Z,572.63
2018-03-24T00:05:39.237Z,573.06
2018-03-24T00:06:39.216Z,573.12
2018-03-24T00:07:39.253Z,572.73
2018-03-24T00:08:39.220Z,573.01
2018-03-24T00:09:39.235Z,573.14
2018-03-24T00:10:39.245Z,572.77
2018-03-24T00:11:39.232Z,572.97
2018-03-24T00:12:39.229Z,573.13
2018-03-24T00:13:39.232Z,572.81
2018-03-24T00:14:39.230Z,573.15
2018-03-24T00:15:39.252Z,573.18
2018-03-24T00:16:39.246Z,572.85
2018-03-24T00:17:39.229Z,573.19
2018-03-24T00:18:39.265Z,573.2
2018-03-24T00:19:39.228Z,572.91
2018-03-24T00:20:39.225Z,573.16
2018-03-24T00:21:39.237Z,573.22
2018-03-24T00:22:39.238Z,572.95
2018-03-24T00:23:39.224Z,573.26
2018-03-24T00:24:39.230Z,573.26
2018-03-24T00:25:39.223Z,572.93
2018-03-24T00:26:39.367Z,573.25
2018-03-24T00:27:39.222Z,573.3
2018-03-24T00:28:39.227Z,573.03
2018-03-24T00:29:39.250Z,573.25
2018-03-24T00:30:39.236Z,573.33
2018-03-24T00:31:39.208Z,573.04
2018-03-24T00:32:39.219Z,573.23
2018-03-24T00:33:39.241Z,573.33
2018-03-24T00:34:39.234Z,573.13
2018-03-24T00:35:39.248Z,573.34
2018-03-24T00:36:39.219Z,573.43
2018-03-24T00:37:39.241Z,573.13
2018-03-24T00:38:39.229Z,573.37
2018-03-24T00:39:39.233Z,573.34
2018-03-24T00:40:39.233Z,573.07
2018-03-24T00:41:39.211Z,573.26
2018-03-24T00:42:39.218Z,573.46
2018-03-24T00:43:39.226Z,573.1
2018-03-24T00:44:39.289Z,573.38
2018-03-24T00:45:39.218Z,573.49
2018-03-24T00:46:39.222Z,573.14
2018-03-24T00:47:39.232Z,573.37
2018-03-24T00:48:39.223Z,573.54
2018-03-24T00:49:39.245Z,573.18
2018-03-24T00:50:39.246Z,573.46
2018-03-24T00:51:39.213Z,573.62
2018-03-24T00:52:39.225Z,573.28
2018-03-24T00:53:39.245Z,573.55
2018-03-24T00:54:39.217Z,573.7
2018-03-24T00:55:39.221Z,573.35
2018-03-24T00:56:39.221Z,573.59
2018-03-24T00:57:39.221Z,573.57
2018-03-24T00:58:39.214Z,573.26
2018-03-24T00:59:39.218Z,573.47
2018-03-24T01:00:39.262Z,573.55
2018-03-24T01:01:39.255Z,573.27
2018-03-24T01:02:39.224Z,573.56
2018-03-24T01:03:39.261Z,573.65
2018-03-24T01:04:39.282Z,573.34
2018-03-24T01:05:39.492Z,573.54
2018-03-24T01:06:39.248Z,573.72
2018-03-24T01:07:39.231Z,573.36
2018-03-24T01:08:39.228Z,573.67
2018-03-24T01:09:39.224Z,573.77
2018-03-24T01:10:39.513Z,573.35
2018-03-24T01:11:39.278Z,573.69
2018-03-24T01:12:39.226Z,573.8
2018-03-24T01:13:39.227Z,573.44
2018-03-24T01:14:39.239Z,573.76
2018-03-24T01:15:39.245Z,573.87
2018-03-24T01:16:39.190Z,573.47
2018-03-24T01:17:39.241Z,573.65
2018-03-24T01:18:39.214Z,573.78
2018-03-24T01:19:39.204Z,573.43
2018-03-24T01:20:39.258Z,573.67
2018-03-24T01:21:39.226Z,573.72
2018-03-24T01:22:39.187Z,573.46
2018-03-24T01:23:39.214Z,573.74
2018-03-24T01:24:39.195Z,573.89
2018-03-24T01:25:39.222Z,573.53
2018-03-24T01:26:39.190Z,573.69
2018-03-24T01:27:39.200Z,573.81
2018-03-24T01:28:39.190Z,573.48
2018-03-24T01:29:39.210Z,573.82
2018-03-24T01:30:39.244Z,573.84
2018-03-24T01:31:39.233Z,573.53
2018-03-24T01:32:39.206Z,573.81
2018-03-24T01:33:39.214Z,573.82
2018-03-24T01:34:39.213Z,573.56
2018-03-24T01:35:39.202Z,573.81
2018-03-24T01:36:39.288Z,573.82
2018-03-24T01:37:39.240Z,573.54
2018-03-24T01:38:39.237Z,573.87
2018-03-24T01:39:39.227Z,573.89
2018-03-24T01:40:39.230Z,573.58
2018-03-24T01:41:39.190Z,573.92
2018-03-24T01:42:39.217Z,573.93
2018-03-24T01:43:39.224Z,573.58
2018-03-24T01:44:39.208Z,573.85
2018-03-24T01:45:39.188Z,573.96
2018-03-24T01:46:39.222Z,573.61
2018-03-24T01:47:39.249Z,573.88
2018-03-24T01:48:39.212Z,573.93
2018-03-24T01:49:39.198Z,573.58
2018-03-24T01:50:39.219Z,573.88
2018-03-24T01:51:39.208Z,573.92
2018-03-24T01:52:39.235Z,573.62
2018-03-24T01:53:39.201Z,573.89
2018-03-24T01:54:39.211Z,573.98
2018-03-24T01:55:39.211Z,573.62
2018-03-24T01:56:39.189Z,573.88
2018-03-24T01:57:39.214Z,574.01
2018-03-24T01:58:39.215Z,573.68
2018-03-24T01:59:39.202Z,573.9
2018-03-24T02:00:39.211Z,574
2018-03-24T02:01:39.247Z,573.63
2018-03-24T02:02:39.231Z,573.96
2018-03-24T02:03:39.198Z,574.01
2018-03-24T02:04:39.230Z,573.69
2018-03-24T02:05:39.194Z,573.88
2018-03-24T02:06:39.215Z,574.02
2018-03-24T02:07:39.225Z,573.68
2018-03-24T02:08:39.195Z,573.98
2018-03-24T02:09:39.197Z,574.17
2018-03-24T02:10:39.203Z,573.8
2018-03-24T02:11:39.187Z,574.12
2018-03-24T02:12:39.208Z,574.19
2018-03-24T02:13:39.208Z,573.79
2018-03-24T02:14:39.205Z,574.02
2018-03-24T02:15:39.228Z,574.12
2018-03-24T02:16:39.217Z,573.88
2018-03-24T02:17:39.238Z,574.12
2018-03-24T02:18:39.224Z,574.23
2018-03-24T02:19:39.205Z,573.81
2018-03-24T02:20:39.217Z,574.11
2018-03-24T02:21:39.223Z,574.18
2018-03-24T02:22:39.212Z,573.76
2018-03-24T02:23:39.199Z,574.01
2018-03-24T02:24:39.191Z,574.17
2018-03-24T02:25:39.206Z,573.87
2018-03-24T02:26:39.187Z,574.18
2018-03-24T02:27:39.311Z,574.22
2018-03-24T02:28:39.243Z,573.88
2018-03-24T02:29:39.206Z,574.17
2018-03-24T02:30:39.179Z,574.25
2018-03-24T02:31:39.192Z,573.87
2018-03-24T02:32:39.228Z,574.23
2018-03-24T02:33:39.195Z,574.24
2018-03-24T02:34:39.185Z,573.92
2018-03-24T02:35:39.199Z,574.16
2018-03-24T02:36:39.196Z,574.25
2018-03-24T02:37:39.204Z,573.93
2018-03-24T02:38:39.186Z,574.19
2018-03-24T02:39:39.203Z,574.3
2018-03-24T02:40:39.222Z,573.91
2018-03-24T02:41:39.215Z,574.14
2018-03-24T02:42:39.200Z,574.28
2018-03-24T02:43:39.200Z,573.91
2018-03-24T02:44:39.206Z,574.21
2018-03-24T02:45:39.253Z,574.31
2018-03-24T02:46:39.232Z,573.95
2018-03-24T02:47:39.186Z,574.29
2018-03-24T02:48:39.198Z,574.37
2018-03-24T02:49:39.195Z,574
2018-03-24T02:50:39.177Z,574.18
2018-03-24T02:51:39.202Z,574.41
2018-03-24T02:52:39.200Z,574
2018-03-24T02:53:39.200Z,574.24
2018-03-24T02:54:39.206Z,574.39
2018-03-24T02:55:39.210Z,574.05
2018-03-24T02:56:39.201Z,574.31
2018-03-24T02:57:39.210Z,574.39
2018-03-24T02:58:39.210Z,574.01
2018-03-24T02:59:39.204Z,574.4
2018-03-24T03:00:39.205Z,574.4
2018-03-24T03:01:39.184Z,574.09
2018-03-24T03:02:39.190Z,574.34
2018-03-24T03:03:39.209Z,574.45
2018-03-24T03:04:39.377Z,574.05
2018-03-24T03:05:39.203Z,574.39
2018-03-24T03:06:39.212Z,574.47
2018-03-24T03:07:39.205Z,574.12
2018-03-24T03:08:39.193Z,574.38
2018-03-24T03:09:39.203Z,574.38
2018-03-24T03:10:39.203Z,574.08
2018-03-24T03:11:39.206Z,574.4
2018-03-24T03:12:39.203Z,574.51
2018-03-24T03:13:39.194Z,574.15
2018-03-24T03:14:39.166Z,574.49
2018-03-24T03:15:39.180Z,574.55
2018-03-24T03:16:39.178Z,574.24
2018-03-24T03:17:39.196Z,574.57
2018-03-24T03:18:39.187Z,574.53
2018-03-24T03:19:39.189Z,574.19
2018-03-24T03:20:39.181Z,574.57
2018-03-24T03:21:39.488Z,574.6
2018-03-24T03:22:39.191Z,574.23
2018-03-24T03:23:39.182Z,574.45
2018-03-24T03:24:39.196Z,574.57
2018-03-24T03:25:39.259Z,574.24
2018-03-24T03:26:39.201Z,574.56
2018-03-24T03:27:39.196Z,574.6
2018-03-24T03:28:39.181Z,574.22
2018-03-24T03:29:39.163Z,574.52
2018-03-24T03:30:39.185Z,574.54
2018-03-24T03:31:39.183Z,574.24
2018-03-24T03:32:39.171Z,574.5
2018-03-24T03:33:39.177Z,574.64
2018-03-24T03:34:39.176Z,574.25
2018-03-24T03:35:39.182Z,574.53
2018-03-24T03:36:39.172Z,574.63
2018-03-24T03:37:39.156Z,574.27
2018-03-24T03:38:39.157Z,574.53
2018-03-24T03:39:39.314Z,574.67
2018-03-24T03:40:39.161Z,574.31
2018-03-24T03:41:39.186Z,574.61
2018-03-24T03:42:39.200Z,574.7
2018-03-24T03:43:39.181Z,574.37
2018-03-24T03:44:39.208Z,574.57
2018-03-24T03:45:39.167Z,574.68
2018-03-24T03:46:39.178Z,574.27
2018-03-24T03:47:39.156Z,574.63
2018-03-24T03:48:39.159Z,574.67
2018-03-24T03:49:39.162Z,574.38
2018-03-24T03:50:39.133Z,574.61
2018-03-24T03:51:39.413Z,574.71
2018-03-24T03:52:39.140Z,574.3
2018-03-24T03:53:39.167Z,574.72
2018-03-24T03:54:39.152Z,574.74
2018-03-24T03:55:39.184Z,574.38
2018-03-24T03:56:39.215Z,574.69
2018-03-24T03:57:39.173Z,574.73
2018-03-24T03:58:39.210Z,574.4
2018-03-24T03:59:39.155Z,574.74
2018-03-24T04:00:39.162Z,574.77
2018-03-24T04:01:39.134Z,574.42
2018-03-24T04:02:39.139Z,574.72
2018-03-24T04:03:39.160Z,574.75
2018-03-24T04:04:39.153Z,574.5
2018-03-24T04:05:39.143Z,574.68
2018-03-24T04:06:39.202Z,574.73
2018-03-24T04:07:39.158Z,574.48
2018-03-24T04:08:39.183Z,574.77
2018-03-24T04:09:39.143Z,574.88
2018-03-24T04:10:39.158Z,574.51
2018-03-24T04:11:39.199Z,574.75
2018-03-24T04:12:39.157Z,574.71
2018-03-24T04:13:39.175Z,574.43
2018-03-24T04:14:39.178Z,574.79
2018-03-24T04:15:39.173Z,574.9
2018-03-24T04:16:39.169Z,574.57
2018-03-24T04:17:39.153Z,574.87
2018-03-24T04:18:39.158Z,574.9
2018-03-24T04:19:39.163Z,574.51
2018-03-24T04:20:39.189Z,574.83
2018-03-24T04:21:39.153Z,574.91
2018-03-24T04:22:39.171Z,574.61
2018-03-24T04:23:39.143Z,574.79
2018-03-24T04:24:39.136Z,574.94
2018-03-24T04:25:39.150Z,574.61
2018-03-24T04:26:39.173Z,574.87
2018-03-24T04:27:39.157Z,574.96
2018-03-24T04:28:39.243Z,574.66
2018-03-24T04:29:39.139Z,574.85
2018-03-24T04:30:39.165Z,575.01
2018-03-24T04:31:39.138Z,574.61
2018-03-24T04:32:39.174Z,574.9
2018-03-24T04:33:39.162Z,574.95
2018-03-24T04:34:39.156Z,574.65
2018-03-24T04:35:39.151Z,574.93
2018-03-24T04:36:39.168Z,574.94
2018-03-24T04:37:39.180Z,574.68
2018-03-24T04:38:39.151Z,574.91
2018-03-24T04:39:39.175Z,575.02
2018-03-24T04:40:39.504Z,574.69
2018-03-24T04:41:39.147Z,575
2018-03-24T04:42:39.165Z,575.02
2018-03-24T04:43:39.169Z,574.69
2018-03-24T04:44:39.148Z,574.99
2018-03-24T04:45:39.190Z,575.04
2018-03-24T04:46:39.197Z,574.7
2018-03-24T04:47:39.141Z,574.96
2018-03-24T04:48:39.139Z,575.04
2018-03-24T04:49:39.140Z,574.67
2018-03-24T04:50:39.427Z,574.97
2018-03-24T04:51:39.134Z,575.07
2018-03-24T04:52:39.168Z,574.75
2018-03-24T04:53:39.152Z,574.98
2018-03-24T04:54:39.148Z,575.1
2018-03-24T04:55:39.159Z,574.76
2018-03-24T04:56:39.150Z,575.03
2018-03-24T04:57:39.137Z,575.19
2018-03-24T04:58:39.130Z,574.77
2018-03-24T04:59:39.164Z,575.03
2018-03-24T05:00:39.128Z,575.09
2018-03-24T05:01:39.159Z,574.71
2018-03-24T05:02:39.124Z,575
2018-03-24T05:03:39.136Z,574.97
2018-03-24T05:04:39.152Z,574.56
2018-03-24T05:05:39.159Z,574.93
2018-03-24T05:06:39.145Z,574.9
2018-03-24T05:07:39.167Z,574.51
2018-03-24T05:08:39.144Z,574.76
2018-03-24T05:09:39.325Z,574.78
2018-03-24T05:10:39.154Z,574.36
2018-03-24T05:11:39.128Z,574.62
2018-03-24T05:12:39.166Z,574.65
2018-03-24T05:13:39.173Z,574.21
2018-03-24T05:14:39.160Z,574.46
2018-03-24T05:15:39.155Z,574.47
2018-03-24T05:16:39.163Z,574.14
2018-03-24T05:17:39.125Z,574.44
2018-03-24T05:18:39.154Z,574.42
2018-03-24T05:19:39.424Z,574.02
2018-03-24T05:20:39.138Z,574.29
2018-03-24T05:21:39.148Z,574.23
2018-03-24T05:22:39.150Z,573.88
2018-03-24T05:23:39.194Z,574.09
2018-03-24T05:24:39.171Z,574.04
2018-03-24T05:25:39.164Z,573.72
2018-03-24T05:26:39.146Z,573.96
2018-03-24T05:27:39.132Z,573.93
2018-03-24T05:28:39.131Z,573.58
2018-03-24T05:29:39.127Z,573.85
2018-03-24T05:30:39.171Z,573.83
2018-03-24T05:31:39.114Z,573.48
2018-03-24T05:32:39.117Z,573.72
2018-03-24T05:33:39.154Z,573.66
2018-03-24T05:34:39.147Z,573.34
2018-03-24T05:35:39.135Z,573.55
2018-03-24T05:36:39.152Z,573.52
2018-03-24T05:37:39.124Z,573.23
2018-03-24T05:38:39.136Z,573.42
2018-03-24T05:39:39.150Z,573.39
2018-03-24T05:40:39.133Z,573.08
2018-03-24T05:41:39.264Z,573.29
2018-03-24T05:42:39.145Z,573.27
2018-03-24T05:43:39.190Z,572.97
2018-03-24T05:44:39.125Z,573.15
2018-03-24T05:45:39.149Z,573.16
2018-03-24T05:46:39.160Z,572.85
2018-03-24T05:47:39.118Z,573.02
2018-03-24T05:48:39.523Z,572.99
2018-03-24T05:49:39.150Z,572.68
2018-03-24T05:50:39.145Z,572.92
2018-03-24T05:51:39.137Z,572.87
2018-03-24T05:52:39.148Z,572.58
2018-03-24T05:53:39.118Z,572.81
2018-03-24T05:54:39.149Z,572.82
2018-03-24T05:55:39.137Z,572.48
2018-03-24T05:56:39.109Z,572.73
2018-03-24T05:57:39.454Z,572.67
2018-03-24T05:58:39.145Z,572.4
2018-03-24T05:59:39.118Z,572.6
2018-03-24T06:00:39.151Z,572.61
2018-03-24T06:01:39.137Z,572.29
2018-03-24T06:02:39.142Z,572.52
2018-03-24T06:03:39.124Z,572.49
2018-03-24T06:04:39.136Z,572.19
2018-03-24T06:05:39.116Z,572.41
2018-03-24T06:06:39.146Z,572.36
2018-03-24T06:07:39.179Z,572.1
2018-03-24T06:08:39.289Z,572.32
2018-03-24T06:09:39.146Z,572.28
2018-03-24T06:10:39.330Z,571.99
2018-03-24T06:11:39.130Z,572.22
2018-03-24T06:12:39.156Z,572.23
2018-03-24T06:13:39.166Z,571.93
2018-03-24T06:14:39.118Z,572.12
2018-03-24T06:15:39.187Z,572.11
2018-03-24T06:16:39.134Z,571.83
2018-03-24T06:17:39.112Z,572.04
2018-03-24T06:18:39.133Z,572.09
2018-03-24T06:19:39.116Z,571.8
2018-03-24T06:20:39.116Z,572.01
2018-03-24T06:21:39.107Z,572.01
2018-03-24T06:22:39.111Z,571.7
2018-03-24T06:23:39.112Z,571.91
2018-03-24T06:24:39.134Z,571.88
2018-03-24T06:25:39.127Z,571.62
2018-03-24T06:26:39.120Z,571.86
2018-03-24T06:27:39.120Z,571.8
2018-03-24T06:28:39.105Z,571.53
2018-03-24T06:29:39.217Z,571.72
2018-03-24T06:30:39.128Z,571.69
2018-03-24T06:31:39.124Z,571.43
2018-03-24T06:32:39.120Z,571.68
2018-03-24T06:33:39.119Z,571.65
2018-03-24T06:34:39.139Z,571.35
2018-03-24T06:35:39.102Z,571.6
2018-03-24T06:36:39.137Z,571.58
2018-03-24T06:37:39.222Z,571.3
2018-03-24T06:38:39.114Z,571.51
2018-03-24T06:39:39.183Z,571.53
2018-03-24T06:40:39.169Z,571.25
2018-03-24T06:41:39.120Z,571.44
2018-03-24T06:42:39.109Z,571.42
2018-03-24T06:43:39.105Z,571.16
2018-03-24T06:44:39.108Z,571.41
2018-03-24T06:45:39.089Z,571.42
2018-03-24T06:46:39.149Z,571.16
2018-03-24T06:47:39.090Z,571.38
2018-03-24T06:48:39.091Z,571.38
2018-03-24T06:49:39.108Z,571.03
2018-03-24T06:50:39.149Z,571.36
2018-03-24T06:51:39.102Z,571.26
2018-03-24T06:52:39.106Z,571.02
2018-03-24T06:53:39.093Z,571.25
2018-03-24T06:54:39.108Z,571.23
2018-03-24T06:55:39.110Z,570.93
2018-03-24T06:56:39.128Z,571.19
2018-03-24T06:57:39.106Z,571.19
2018-03-24T06:58:39.129Z,570.87
2018-03-24T06:59:39.129Z,571.13
2018-03-24T07:00:39.282Z,571.06
2018-03-24T07:01:39.101Z,570.81
2018-03-24T07:02:39.086Z,571.1
2018-03-24T07:03:39.098Z,571.05
2018-03-24T07:04:39.081Z,570.75
2018-03-24T07:05:39.145Z,570.97
2018-03-24T07:06:39.103Z,570.98
2018-03-24T07:07:39.079Z,570.7
2018-03-24T07:08:39.127Z,570.96
2018-03-24T07:09:39.115Z,570.97
2018-03-24T07:10:39.088Z,570.69
2018-03-24T07:11:39.107Z,570.92
2018-03-24T07:12:39.103Z,570.91
2018-03-24T07:13:39.092Z,570.67
2018-03-24T07:14:39.075Z,570.88
2018-03-24T07:15:39.086Z,570.88
2018-03-24T07:16:39.104Z,570.58
2018-03-24T07:17:39.089Z,570.87
2018-03-24T07:18:39.097Z,570.9
2018-03-24T07:19:38.940Z,570.64
2018-03-24T07:20:39.079Z,570.92
2018-03-24T07:21:39.085Z,570.88
2018-03-24T07:22:39.094Z,570.63
2018-03-24T07:23:39.109Z,570.94
2018-03-24T07:24:39.083Z,570.95
2018-03-24T07:25:39.097Z,570.63
2018-03-24T07:26:39.083Z,570.9
2018-03-24T07:27:39.109Z,570.89
2018-03-24T07:28:39.093Z,570.64
2018-03-24T07:29:39.080Z,570.98
2018-03-24T07:30:39.092Z,570.97
2018-03-24T07:31:39.100Z,570.68
2018-03-24T07:32:39.077Z,570.88
2018-03-24T07:33:39.076Z,570.9
2018-03-24T07:34:39.078Z,570.59
2018-03-24T07:35:39.086Z,570.93
2018-03-24T07:36:39.076Z,570.99
2018-03-24T07:37:39.068Z,570.63
2018-03-24T07:38:39.081Z,570.92
2018-03-24T07:39:39.111Z,570.93
2018-03-24T07:40:39.173Z,570.58
2018-03-24T07:41:39.093Z,570.86
2018-03-24T07:42:39.103Z,570.82
2018-03-24T07:43:39.107Z,570.58
2018-03-24T07:44:39.076Z,570.87
2018-03-24T07:45:39.103Z,570.81
2018-03-24T07:46:39.103Z,570.48
2018-03-24T07:47:39.310Z,570.8
2018-03-24T07:48:39.110Z,570.81
2018-03-24T07:49:39.101Z,570.46
2018-03-24T07:50:39.085Z,570.72
2018-03-24T07:51:39.086Z,570.76
2018-03-24T07:52:39.085Z,570.43
2018-03-24T07:53:39.077Z,570.72
2018-03-24T07:54:39.099Z,570.71
2018-03-24T07:55:39.081Z,570.43
2018-03-24T07:56:39.123Z,570.67
2018-03-24T07:57:39.058Z,570.71
2018-03-24T07:58:39.095Z,570.4
2018-03-24T07:59:39.072Z,570.63
2018-03-24T08:00:39.087Z,570.68
2018-03-24T08:01:39.162Z,570.35
2018-03-24T08:02:39.087Z,570.63
2018-03-24T08:03:39.083Z,570.61
2018-03-24T08:04:39.099Z,570.31
2018-03-24T08:05:39.070Z,570.57
2018-03-24T08:06:39.087Z,570.57
2018-03-24T08:07:39.082Z,570.27
2018-03-24T08:08:39.065Z,570.53
2018-03-24T08:09:39.282Z,570.55
2018-03-24T08:10:39.112Z,570.19
2018-03-24T08:11:39.099Z,570.47
2018-03-24T08:12:39.142Z,570.44
2018-03-24T08:13:39.080Z,570.16
2018-03-24T08:14:39.071Z,570.4
2018-03-24T08:15:39.077Z,570.4
2018-03-24T08:16:39.110Z,570.11
2018-03-24T08:17:39.060Z,570.33
2018-03-24T08:18:39.085Z,570.36
2018-03-24T08:19:39.063Z,570.07
2018-03-24T08:20:39.096Z,570.36
2018-03-24T08:21:39.099Z,570.28
2018-03-24T08:22:39.088Z,570.06
2018-03-24T08:23:39.079Z,570.3
2018-03-24T08:24:39.081Z,570.27
2018-03-24T08:25:39.104Z,569.98
2018-03-24T08:26:39.132Z,570.25
2018-03-24T08:27:39.059Z,570.22
2018-03-24T08:28:39.080Z,569.92
2018-03-24T08:29:39.059Z,570.19
2018-03-24T08:30:39.181Z,570.17
2018-03-24T08:31:39.107Z,569.89
2018-03-24T08:32:39.066Z,570.15
2018-03-24T08:33:39.056Z,570.14
2018-03-24T08:34:39.058Z,569.89
2018-03-24T08:35:39.057Z,570.14
2018-03-24T08:36:39.069Z,570.13
2018-03-24T08:37:39.061Z,569.86
2018-03-24T08:38:39.080Z,570.2
2018-03-24T08:39:39.058Z,570.19
2018-03-24T08:40:39.066Z,569.89
2018-03-24T08:41:39.069Z,570.16
2018-03-24T08:42:39.055Z,570.13
2018-03-24T08:43:39.066Z,569.82
2018-03-24T08:44:39.132Z,570.11
2018-03-24T08:45:39.072Z,570.1
2018-03-24T08:46:39.076Z,569.78
2018-03-24T08:47:39.056Z,570.07
2018-03-24T08:48:39.073Z,570.03
2018-03-24T08:49:39.066Z,569.78
2018-03-24T08:50:39.048Z,570.1
2018-03-24T08:51:39.107Z,570.04
2018-03-24T08:52:39.063Z,569.72
2018-03-24T08:53:39.056Z,570.05
2018-03-24T08:54:39.071Z,570.05
2018-03-24T08:55:39.064Z,569.72
2018-03-24T08:56:39.115Z,570.07
2018-03-24T08:57:39.067Z,570.03
2018-03-24T08:58:39.061Z,569.76
2018-03-24T08:59:39.054Z,570.05
2018-03-24T09:00:39.074Z,570.01
2018-03-24T09:01:39.072Z,569.71
2018-03-24T09:02:39.071Z,570.03
2018-03-24T09:03:39.072Z,569.96
2018-03-24T09:04:39.057Z,569.71
2018-03-24T09:05:39.054Z,569.97
2018-03-24T09:06:39.065Z,569.9
2018-03-24T09:07:39.052Z,569.66
2018-03-24T09:08:39.050Z,569.97
2018-03-24T09:09:39.048Z,569.94
2018-03-24T09:10:39.063Z,569.64
2018-03-24T09:11:39.036Z,569.93
2018-03-24T09:12:39.058Z,570.13
2018-03-24T09:13:39.082Z,569.8
2018-03-24T09:14:39.083Z,569.98
2018-03-24T09:15:39.058Z,569.97
2018-03-24T09:16:39.067Z,569.6
2018-03-24T09:17:39.050Z,569.91
2018-03-24T09:18:39.077Z,569.9
2018-03-24T09:19:39.055Z,569.59
2018-03-24T09:20:39.099Z,569.84
2018-03-24T09:21:39.033Z,569.78
2018-03-24T09:22:39.056Z,569.53
2018-03-24T09:23:39.068Z,569.77
2018-03-24T09:24:39.089Z,569.59
2018-03-24T09:25:39.066Z,569.54
2018-03-24T09:26:38.953Z,569.88
2018-03-24T09:27:39.063Z,569.92
2018-03-24T09:28:39.051Z,569.62
2018-03-24T09:29:39.072Z,569.9
2018-03-24T09:30:39.062Z,569.93
2018-03-24T09:31:39.052Z,569.9
2018-03-24T09:32:39.044Z,569.97
2018-03-24T09:33:39.055Z,570.01
2018-03-24T09:34:39.059Z,569.64
2018-03-24T09:35:39.043Z,569.88
2018-03-24T09:36:39.028Z,569.83
2018-03-24T09:37:39.058Z,569.52
2018-03-24T09:38:39.044Z,569.86
2018-03-24T09:39:39.053Z,569.87
2018-03-24T09:40:39.075Z,569.52
2018-03-24T09:41:39.038Z,569.94
2018-03-24T09:42:39.052Z,570.03
2018-03-24T09:43:39.049Z,569.69
2018-03-24T09:44:39.038Z,569.96
2018-03-24T09:45:39.042Z,569.96
2018-03-24T09:46:39.041Z,569.67
2018-03-24T09:47:39.047Z,569.97
2018-03-24T09:48:39.026Z,569.96
2018-03-24T09:49:39.034Z,569.59
2018-03-24T09:50:39.053Z,569.93
2018-03-24T09:51:39.115Z,569.96
2018-03-24T09:52:39.110Z,569.59
2018-03-24T09:53:39.028Z,569.83
2018-03-24T09:54:39.053Z,569.89
2018-03-24T09:55:39.044Z,569.56
2018-03-24T09:56:39.036Z,569.82
2018-03-24T09:57:39.055Z,569.89
2018-03-24T09:58:39.042Z,569.52
2018-03-24T09:59:39.054Z,569.84
2018-03-24T10:00:39.035Z,569.87
2018-03-24T10:01:39.078Z,569.53
2018-03-24T10:02:39.029Z,569.78
2018-03-24T10:03:39.039Z,569.83
2018-03-24T10:04:39.045Z,569.5
2018-03-24T10:05:39.036Z,569.9
2018-03-24T10:06:39.049Z,569.87
2018-03-24T10:07:39.030Z,569.56
2018-03-24T10:08:39.059Z,569.84
2018-03-24T10:09:39.006Z,569.8
2018-03-24T10:10:39.041Z,569.51
2018-03-24T10:11:39.037Z,569.79
2018-03-24T10:12:39.020Z,569.82
2018-03-24T10:13:39.041Z,569.48
2018-03-24T10:14:39.032Z,569.8
2018-03-24T10:15:39.039Z,569.82
2018-03-24T10:16:39.086Z,569.46
2018-03-24T10:17:39.115Z,569.74
2018-03-24T10:18:39.056Z,569.78
2018-03-24T10:19:39.031Z,569.46
2018-03-24T10:20:39.031Z,569.72
2018-03-24T10:21:39.002Z,569.7
2018-03-24T10:22:39.061Z,569.44
2018-03-24T10:23:39.034Z,569.68
2018-03-24T10:24:39.041Z,569.71
2018-03-24T10:25:39.040Z,569.44
2018-03-24T10:26:39.056Z,569.68
2018-03-24T10:27:39.056Z,569.73
2018-03-24T10:28:39.045Z,569.36
2018-03-24T10:29:39.026Z,569.66
2018-03-24T10:30:39.046Z,569.63
2018-03-24T10:31:39.122Z,569.31
2018-03-24T10:32:39.056Z,569.59
2018-03-24T10:33:39.031Z,569.59
2018-03-24T10:34:39.027Z,569.31
2018-03-24T10:35:39.023Z,569.57
2018-03-24T10:36:39.020Z,569.58
2018-03-24T10:37:39.042Z,569.28
2018-03-24T10:38:39.030Z,569.6
2018-03-24T10:39:39.049Z,569.56
2018-03-24T10:40:39.059Z,569.28
2018-03-24T10:41:39.067Z,569.56
2018-03-24T10:42:39.022Z,569.52
2018-03-24T10:43:39.046Z,569.17
2018-03-24T10:44:39.026Z,569.5
2018-03-24T10:45:39.014Z,569.53
2018-03-24T10:46:39.029Z,569.23
2018-03-24T10:47:39.099Z,569.48
2018-03-24T10:48:39.020Z,569.48
2018-03-24T10:49:39.021Z,569.16
2018-03-24T10:50:39.078Z,569.46
2018-03-24T10:51:39.063Z,569.44
2018-03-24T10:52:39.171Z,569.36
2018-03-24T10:53:39.013Z,569.51
2018-03-24T10:54:39.028Z,569.43
2018-03-24T10:55:39.022Z,569.05
2018-03-24T10:56:39.024Z,569.3
2018-03-24T10:57:39.049Z,569.29
2018-03-24T10:58:39.018Z,568.96
2018-03-24T10:59:39.039Z,569.16
2018-03-24T11:00:39.037Z,569.23
2018-03-24T11:01:39.032Z,568.89
2018-03-24T11:02:39.018Z,569.27
2018-03-24T11:03:39.028Z,569.25
2018-03-24T11:04:39.009Z,568.93
2018-03-24T11:05:39.032Z,569.14
2018-03-24T11:06:38.997Z,569.15
2018-03-24T11:07:39.045Z,568.84
2018-03-24T11:08:39.051Z,569.14
2018-03-24T11:09:39.024Z,569.17
2018-03-24T11:10:39.090Z,568.8
2018-03-24T11:11:39.042Z,569.1
2018-03-24T11:12:39.088Z,569.09
2018-03-24T11:13:39.076Z,568.74
2018-03-24T11:14:39.037Z,568.98
2018-03-24T11:15:39.037Z,568.97
2018-03-24T11:16:39.047Z,568.68
2018-03-24T11:17:39.023Z,568.9
2018-03-24T11:18:39.044Z,568.91
2018-03-24T11:19:39.042Z,568.6
2018-03-24T11:20:39.027Z,568.86
2018-03-24T11:21:39.021Z,568.86
2018-03-24T11:22:39.030Z,568.56
2018-03-24T11:23:39.023Z,568.82
2018-03-24T11:24:39.053Z,568.8
2018-03-24T11:25:39.035Z,568.52
2018-03-24T11:26:39.022Z,568.8
2018-03-24T11:27:39.024Z,568.78
2018-03-24T11:28:39.034Z,568.49
2018-03-24T11:29:39.018Z,568.65
2018-03-24T11:30:39.017Z,568.65
2018-03-24T11:31:39.009Z,568.42
2018-03-24T11:32:39.082Z,568.66
2018-03-24T11:33:39.032Z,568.69
2018-03-24T11:34:39.058Z,568.38
2018-03-24T11:35:39.010Z,568.63
2018-03-24T11:36:39.025Z,568.67
2018-03-24T11:37:39.027Z,568.26
2018-03-24T11:38:39.007Z,568.55
2018-03-24T11:39:39.027Z,568.55
2018-03-24T11:40:39.015Z,568.26
2018-03-24T11:41:39.012Z,568.57
2018-03-24T11:42:39.040Z,568.57
2018-03-24T11:43:39.029Z,568.28
2018-03-24T11:44:39.038Z,568.54
2018-03-24T11:45:39.025Z,568.57
2018-03-24T11:46:39.049Z,568.25
2018-03-24T11:47:39.006Z,568.58
2018-03-24T11:48:39.023Z,568.67
2018-03-24T11:49:39.032Z,568.34
2018-03-24T11:50:38.999Z,568.71
2018-03-24T11:51:39.045Z,568.7
2018-03-24T11:52:39.036Z,568.39
2018-03-24T11:53:39.023Z,568.71
2018-03-24T11:54:39.018Z,568.75
2018-03-24T11:55:39.003Z,568.38
2018-03-24T11:56:39.015Z,568.72
2018-03-24T11:57:38.996Z,568.68
2018-03-24T11:58:39.084Z,568.44
2018-03-24T11:59:39.021Z,568.75
2018-03-24T12:00:38.993Z,568.85
2018-03-24T12:01:39.043Z,568.48
2018-03-24T12:02:38.989Z,568.83
2018-03-24T12:03:39.098Z,568.81
2018-03-24T12:04:39.030Z,568.59
2018-03-24T12:05:38.990Z,568.94
2018-03-24T12:06:38.985Z,568.92
2018-03-24T12:07:39.009Z,568.66
2018-03-24T12:08:38.973Z,569
2018-03-24T12:09:38.995Z,569.06
2018-03-24T12:10:39.059Z,568.66
2018-03-24T12:11:39.029Z,569
2018-03-24T12:12:39.025Z,569.07
2018-03-24T12:13:39.006Z,568.74
2018-03-24T12:14:39.007Z,569.01
2018-03-24T12:15:39.014Z,568.99
2018-03-24T12:16:39.012Z,568.63
2018-03-24T12:17:39.017Z,568.81
2018-03-24T12:18:39.026Z,568.82
2018-03-24T12:19:39.035Z,568.56
2018-03-24T12:20:38.987Z,568.8
2018-03-24T12:21:39.129Z,568.83
2018-03-24T12:22:39.025Z,568.51
2018-03-24T12:23:39.045Z,568.86
2018-03-24T12:24:39.039Z,568.92
2018-03-24T12:25:39.077Z,568.53
2018-03-24T12:26:39.023Z,568.87
2018-03-24T12:27:38.981Z,568.92
2018-03-24T12:28:39.026Z,568.63
2018-03-24T12:29:39.076Z,568.89
2018-03-24T12:30:39.016Z,568.92
2018-03-24T12:31:39.081Z,568.6